Airfield :
LOGIN :

Register | Disclaimer

   EN    FR    IT 

 










Legend :    VFR   Marginal VFR   IFR   Intensive IFR   Very Intensive IFR
Visi :
Ceiling :
>= 8 km
>= 3000ft
5 to 8 km
1000 to 3000 ft
1500m to 5 km
500 to 1000 ft
800 to 1500m
200 to 500 ft
< 800m
< 200 ft
Symbols :   Thunderstorms  Fog  Heavy snow  Heavy precipitations  Wind > 20 kt
SIGMETs :     Misc.  Thunderstorms  Icing  Turbulence  Mountain Waves  Volcanic Ashes







- Airport Elevation : 83 ft
- IATA code : LHR
- Download approach charts


EGLL - London Heathrow

CURRENT METAR :
  • 190450Z AUTO 06010KT 9999 OVC030 07/03 Q1023 NOSIG

EXPIRED METARs :
  • 190420Z AUTO 07012KT 9999 BKN028 OVC033 07/03 Q1023 NOSIG
  • 190350Z AUTO 06011KT 9999 BKN023 OVC031 07/04 Q1023 NOSIG
  • 190320Z AUTO 06008KT 040V100 9999 OVC020 07/03 Q1023 NOSIG
  • 190250Z AUTO 06010KT 9999 BKN022 BKN027 07/02 Q1024 NOSIG
  • 190220Z AUTO 06010KT 9999 BKN030 07/02 Q1024

TAF TAF EGLL
Valid from the 19 at 00:00 until the 20 at 06:00 UTC


182252Z 1900/2006 06010KT CAVOK
BECMG 1901/1904 BKN020
PROB30
TEMPO 1908/1914 8000 -SHRA
PROB40
TEMPO 1914/1924 05015G25KT 6000 SHRA BKN014
TEMPO 2000/2006 6000 SHRA BKN014
PROB40
TEMPO 2000/2006 05015G25KT
No reported NOTAMs for that airfield.



MET'MAP, your aeronautical weather chart ! - Copyright ORBIFLY December 2007 - Disclaimer

ORBIFLY MET'MAP TEAM :

Programming & Development : Alexandra Zaïnal
Concept & Development : Baudouin d'Aumeries
Co-Development & Prog : Marc-Olivier Méhu
Technical & hardware support : Manuel Goepfert

Contact : metmap@orbifly.com




SOURCES & CREDITS :

   NOAA